createdAt,value
2022-09-05T00:00:19.958Z,2.83
2022-09-05T00:03:04.583Z,2.47
2022-09-05T00:06:13.459Z,2.83
2022-09-05T00:09:04.980Z,3.00
2022-09-05T00:11:46.805Z,2.40
2022-09-05T00:15:15.956Z,2.35
2022-09-05T00:18:09.838Z,2.25
2022-09-05T00:24:21.602Z,2.60
2022-09-05T00:24:34.561Z,2.30
2022-09-05T00:27:16.556Z,2.58
2022-09-05T00:31:51.261Z,2.80
2022-09-05T00:33:41.074Z,2.92
2022-09-05T00:36:15.675Z,2.40
2022-09-05T00:38:58.726Z,2.97
2022-09-05T00:41:29.092Z,3.25
2022-09-05T00:44:03.887Z,3.00
2022-09-05T00:46:40.098Z,3.13
2022-09-05T00:49:22.558Z,3.45
2022-09-05T00:52:23.341Z,2.63
2022-09-05T00:57:42.575Z,2.60
2022-09-05T01:00:33.877Z,2.88
2022-09-05T01:03:09.899Z,2.53
2022-09-05T01:06:06.879Z,2.70
2022-09-05T01:09:10.492Z,2.60
2022-09-05T01:11:50.874Z,2.72
2022-09-05T01:14:31.213Z,2.70
2022-09-05T01:17:19.624Z,3.15
2022-09-05T01:20:19.321Z,3.05
2022-09-05T01:23:00.920Z,2.90
2022-09-05T01:25:55.015Z,2.95
2022-09-05T01:29:16.145Z,2.97
2022-09-05T01:31:29.970Z,2.80
2022-09-05T01:34:16.667Z,3.30
2022-09-05T01:37:24.836Z,2.78
2022-09-05T01:40:20.150Z,3.22
2022-09-05T01:43:01.731Z,3.13
2022-09-05T01:45:55.548Z,2.85
2022-09-05T01:48:49.591Z,2.60
2022-09-05T01:52:05.995Z,2.70
2022-09-05T01:54:47.843Z,2.88
2022-09-05T01:57:48.047Z,2.50
2022-09-05T02:00:22.991Z,2.90
2022-09-05T02:03:13.902Z,2.75
2022-09-05T02:06:06.704Z,2.72
2022-09-05T02:09:01.653Z,2.78
2022-09-05T02:11:45.422Z,2.90
2022-09-05T02:14:34.259Z,3.00
2022-09-05T02:17:49.968Z,2.90
2022-09-05T02:20:26.597Z,2.88
2022-09-05T02:23:26.036Z,3.10
2022-09-05T02:26:05.824Z,2.80
2022-09-05T02:28:43.810Z,2.75
2022-09-05T02:31:24.324Z,2.50
2022-09-05T02:36:48.798Z,2.53
2022-09-05T02:45:03.233Z,2.88
2022-09-05T02:45:21.363Z,2.65
2022-09-05T02:45:25.555Z,2.53
2022-09-05T02:47:55.001Z,2.35
2022-09-05T02:54:10.870Z,2.75
2022-09-05T02:57:40.796Z,2.90
2022-09-05T02:57:46.033Z,2.28
2022-09-05T02:59:42.100Z,2.70
2022-09-05T03:02:27.292Z,2.30
2022-09-05T03:05:09.823Z,3.08
2022-09-05T03:07:56.454Z,2.70
2022-09-05T03:10:53.220Z,2.70
2022-09-05T03:13:56.599Z,2.58
2022-09-05T03:16:49.229Z,2.60
2022-09-05T03:19:56.882Z,2.92
2022-09-05T03:22:27.314Z,2.40
2022-09-05T03:25:39.458Z,3.10
2022-09-05T03:28:34.131Z,2.97
2022-09-05T03:31:20.554Z,3.20
2022-09-05T03:34:13.254Z,2.65
2022-09-05T03:37:32.762Z,2.70
2022-09-05T03:40:33.226Z,3.38
2022-09-05T03:43:31.015Z,2.63
2022-09-05T03:46:20.656Z,2.95
2022-09-05T03:54:32.400Z,2.45
2022-09-05T03:57:14.379Z,2.80
2022-09-05T03:57:27.903Z,2.75
2022-09-05T03:59:01.892Z,6.03
2022-09-05T04:08:24.511Z,2.70
2022-09-05T04:08:28.656Z,2.75
2022-09-05T04:11:08.874Z,2.70
2022-09-05T04:13:50.280Z,3.15
2022-09-05T04:16:39.844Z,2.50
2022-09-05T04:19:20.218Z,2.58
2022-09-05T04:22:03.720Z,3.33
2022-09-05T04:24:50.951Z,2.92
2022-09-05T04:27:29.999Z,2.65
2022-09-05T04:29:58.551Z,2.80
2022-09-05T04:32:55.309Z,2.60
2022-09-05T04:35:49.773Z,2.92
2022-09-05T04:38:35.561Z,2.78
2022-09-05T04:41:13.279Z,3.95
2022-09-05T04:43:58.931Z,3.40
2022-09-05T04:46:48.434Z,3.05
2022-09-05T04:49:24.413Z,2.55
2022-09-05T04:52:00.176Z,2.70
2022-09-05T04:54:51.408Z,3.10
2022-09-05T04:57:35.715Z,3.03
2022-09-05T05:06:04.956Z,2.83
2022-09-05T05:06:17.343Z,3.10
2022-09-05T05:06:31.778Z,2.97
2022-09-05T05:08:58.462Z,2.50
2022-09-05T05:18:01.501Z,3.80
2022-09-05T05:18:10.720Z,3.28
2022-09-05T05:18:36.700Z,3.38
2022-09-05T05:21:03.093Z,2.80
2022-09-05T05:23:59.044Z,3.25
2022-09-05T05:26:37.022Z,2.72
2022-09-05T05:29:10.569Z,3.08
2022-09-05T05:31:49.875Z,3.17
2022-09-05T05:34:25.194Z,3.08
2022-09-05T05:37:18.699Z,3.28
2022-09-05T05:39:57.956Z,3.17
2022-09-05T05:42:26.592Z,3.03
2022-09-05T05:44:59.327Z,2.92
2022-09-05T05:47:37.062Z,3.00
2022-09-05T05:50:42.581Z,2.70
2022-09-05T05:53:33.429Z,3.08
2022-09-05T05:56:33.824Z,3.38
2022-09-05T05:59:56.390Z,3.40
2022-09-05T06:03:25.149Z,3.13
2022-09-05T06:06:27.213Z,3.25
2022-09-05T06:14:47.882Z,3.33
2022-09-05T06:15:00.478Z,3.20
2022-09-05T06:15:38.038Z,3.00
2022-09-05T06:18:45.876Z,3.28
2022-09-05T06:22:15.817Z,3.10
2022-09-05T06:25:07.703Z,2.88
2022-09-05T06:28:18.953Z,3.38
2022-09-05T06:31:29.804Z,3.10
2022-09-05T06:34:20.594Z,3.60
2022-09-05T06:37:07.575Z,3.15
2022-09-05T06:40:17.747Z,2.80
2022-09-05T06:43:32.807Z,2.72
2022-09-05T06:46:54.332Z,2.97
2022-09-05T06:49:30.624Z,2.80
2022-09-05T06:52:41.112Z,3.10
2022-09-05T06:55:09.475Z,3.20
2022-09-05T06:58:17.860Z,2.67
2022-09-05T07:00:48.663Z,3.28
2022-09-05T07:03:42.182Z,2.75
2022-09-05T07:07:01.138Z,3.00
2022-09-05T07:09:39.459Z,3.15
2022-09-05T07:12:23.853Z,3.10
2022-09-05T07:14:56.322Z,3.10
2022-09-05T07:18:13.224Z,3.13
2022-09-05T07:21:17.411Z,2.97
2022-09-05T07:24:06.506Z,2.92
2022-09-05T07:26:51.637Z,3.05
2022-09-05T07:29:30.273Z,2.95
2022-09-05T07:32:02.588Z,3.03
2022-09-05T07:34:33.590Z,2.90
2022-09-05T07:37:15.162Z,2.85
2022-09-05T07:40:24.856Z,3.10
2022-09-05T07:43:09.288Z,2.72
2022-09-05T07:45:55.742Z,3.00
2022-09-05T07:48:34.563Z,3.10
2022-09-05T07:55:46.410Z,2.70
2022-09-05T07:57:08.836Z,2.92
2022-09-05T07:57:25.482Z,2.50
2022-09-05T07:59:48.025Z,2.80
2022-09-05T08:02:19.808Z,2.65
2022-09-05T08:04:48.335Z,3.03
2022-09-05T08:07:46.594Z,3.22
2022-09-05T08:11:24.358Z,3.00
2022-09-05T08:13:48.249Z,3.28
2022-09-05T08:16:25.584Z,2.42
2022-09-05T08:19:27.237Z,2.50
2022-09-05T08:22:00.051Z,3.08
2022-09-05T08:24:44.126Z,2.70
2022-09-05T08:27:24.053Z,2.97
2022-09-05T08:30:25.719Z,3.22
2022-09-05T08:33:10.260Z,3.10
2022-09-05T08:36:14.083Z,3.05
2022-09-05T08:38:45.691Z,3.03
2022-09-05T08:41:14.198Z,3.10
2022-09-05T08:46:37.791Z,2.75
2022-09-05T08:46:53.649Z,2.88
2022-09-05T08:49:46.338Z,2.70
2022-09-05T08:52:22.686Z,3.00
2022-09-05T08:55:26.674Z,3.20
2022-09-05T08:58:00.860Z,3.38
2022-09-05T09:00:38.668Z,2.60
2022-09-05T09:03:28.902Z,2.95
2022-09-05T09:06:13.238Z,3.58
2022-09-05T09:09:03.351Z,3.50
2022-09-05T09:11:44.131Z,4.35
2022-09-05T09:14:57.848Z,4.07
2022-09-05T09:17:37.665Z,2.70
2022-09-05T09:20:14.772Z,3.17
2022-09-05T09:23:29.790Z,2.90
2022-09-05T09:26:13.411Z,2.58
2022-09-05T09:29:11.312Z,2.95
2022-09-05T09:32:02.152Z,2.80
2022-09-05T09:34:38.342Z,3.00
2022-09-05T09:37:49.824Z,2.42
2022-09-05T09:40:52.256Z,2.50
2022-09-05T09:43:44.258Z,2.67
2022-09-05T09:46:31.695Z,2.90
2022-09-05T09:49:22.974Z,2.30
2022-09-05T09:52:23.859Z,3.13
2022-09-05T09:55:28.518Z,2.25
2022-09-05T09:58:22.672Z,3.20
2022-09-05T10:01:36.569Z,2.97
2022-09-05T10:10:35.371Z,2.70
2022-09-05T10:10:52.199Z,3.10
2022-09-05T10:14:02.893Z,2.88
2022-09-05T10:16:42.479Z,2.47
2022-09-05T10:22:47.603Z,3.03
2022-09-05T10:25:47.209Z,3.10
2022-09-05T10:28:37.672Z,2.73
2022-09-05T10:35:13.150Z,3.17
2022-09-05T10:37:12.401Z,3.00
2022-09-05T10:39:51.026Z,3.13
2022-09-05T10:42:59.899Z,2.63
2022-09-05T10:45:53.125Z,3.47
2022-09-05T10:48:38.481Z,3.00
2022-09-05T10:51:27.044Z,3.10
2022-09-05T10:54:03.967Z,3.03
2022-09-05T10:56:47.801Z,2.85
2022-09-05T11:02:23.254Z,3.03
2022-09-05T11:02:34.713Z,2.80
2022-09-05T11:05:29.594Z,2.75
2022-09-05T11:08:17.856Z,3.10
2022-09-05T11:11:01.365Z,2.72
2022-09-05T11:13:43.341Z,2.85
2022-09-05T11:16:52.593Z,2.60
2022-09-05T11:19:39.766Z,2.47
2022-09-05T11:22:23.064Z,2.60
2022-09-05T11:24:58.818Z,3.45
2022-09-05T11:27:36.301Z,2.97
2022-09-05T11:30:28.948Z,2.60
2022-09-05T11:37:27.330Z,2.90
2022-09-05T11:40:04.229Z,2.50
2022-09-05T11:40:05.248Z,2.83
2022-09-05T11:42:43.171Z,2.50
2022-09-05T11:46:02.397Z,2.45
2022-09-05T11:49:04.329Z,2.47
2022-09-05T11:51:54.673Z,2.70
2022-09-05T11:57:34.382Z,2.47
2022-09-05T12:00:32.431Z,1.95
2022-09-05T12:03:41.414Z,2.25
2022-09-05T12:06:24.332Z,1.93
2022-09-05T12:09:04.884Z,2.50
2022-09-05T12:11:47.245Z,2.33
2022-09-05T12:14:42.446Z,2.20
2022-09-05T12:17:35.002Z,2.20
2022-09-05T12:20:17.086Z,2.40
2022-09-05T12:23:51.412Z,2.65
2022-09-05T12:27:39.964Z,2.70
2022-09-05T12:29:37.384Z,2.38
2022-09-05T12:33:32.727Z,2.20
2022-09-05T12:36:10.454Z,2.50
2022-09-05T12:39:36.682Z,2.77
2022-09-05T12:42:10.482Z,2.80
2022-09-05T12:44:44.754Z,2.28
2022-09-05T12:47:21.110Z,2.00
2022-09-05T12:50:14.922Z,2.28
2022-09-05T12:52:52.489Z,2.53
2022-09-05T12:55:31.138Z,2.28
2022-09-05T13:02:55.731Z,2.25
2022-09-05T13:03:11.871Z,2.40
2022-09-05T13:04:20.217Z,2.15
2022-09-05T13:07:01.222Z,2.58
2022-09-05T13:10:47.524Z,2.08
2022-09-05T13:14:56.314Z,2.30
2022-09-05T13:15:36.533Z,2.20
2022-09-05T13:18:13.158Z,2.45
2022-09-05T13:20:51.748Z,2.40
2022-09-05T13:23:33.144Z,2.17
2022-09-05T13:26:10.273Z,2.08
2022-09-05T13:28:52.896Z,2.17
2022-09-05T13:38:02.114Z,2.40
2022-09-05T13:38:04.486Z,2.25
2022-09-05T13:38:14.178Z,2.10
2022-09-05T13:40:40.274Z,2.20
2022-09-05T13:43:29.816Z,2.30
2022-09-05T13:46:19.277Z,1.90
2022-09-05T13:52:21.897Z,2.20
2022-09-05T13:54:55.493Z,2.25
2022-09-05T13:57:34.780Z,2.50
2022-09-05T14:00:27.011Z,2.10
2022-09-05T14:03:38.799Z,2.10
2022-09-05T14:06:36.587Z,1.88
2022-09-05T14:09:48.297Z,2.05
2022-09-05T14:12:29.445Z,2.00
2022-09-05T14:15:26.318Z,2.10
2022-09-05T14:18:00.724Z,2.58
2022-09-05T14:20:53.312Z,2.25
2022-09-05T14:23:27.390Z,2.30
2022-09-05T14:26:00.657Z,1.85
2022-09-05T14:28:46.670Z,2.20
2022-09-05T14:34:05.764Z,2.05
2022-09-05T14:37:36.686Z,2.30
2022-09-05T14:37:41.744Z,2.55
2022-09-05T14:40:38.191Z,2.08
2022-09-05T14:43:31.314Z,2.25
2022-09-05T14:46:28.076Z,2.40
2022-09-05T14:49:18.582Z,2.20
2022-09-05T14:51:50.918Z,2.03
2022-09-05T15:02:11.184Z,2.10
2022-09-05T15:02:53.352Z,2.10
2022-09-05T15:03:04.255Z,1.98
2022-09-05T15:05:41.037Z,1.83
2022-09-05T15:08:24.051Z,2.03
2022-09-05T15:12:16.062Z,2.28
2022-09-05T15:14:04.893Z,2.20
2022-09-05T15:16:38.792Z,1.83
2022-09-05T15:19:10.277Z,2.00
2022-09-05T15:21:42.519Z,2.25
2022-09-05T15:24:24.918Z,2.00
2022-09-05T15:27:01.290Z,2.00
2022-09-05T15:29:35.405Z,2.03
2022-09-05T15:32:25.079Z,2.15
2022-09-05T15:34:56.301Z,2.05
2022-09-05T15:37:43.582Z,2.22
2022-09-05T15:40:24.003Z,2.25
2022-09-05T15:42:57.838Z,2.63
2022-09-05T15:45:37.675Z,2.22
2022-09-05T15:48:12.797Z,2.22
2022-09-05T15:50:51.426Z,2.67
2022-09-05T15:53:30.039Z,2.70
2022-09-05T15:56:16.946Z,2.30
2022-09-05T15:58:56.137Z,2.43
2022-09-05T16:01:31.200Z,2.30
2022-09-05T16:07:59.885Z,2.30
2022-09-05T16:10:36.344Z,1.90
2022-09-05T16:10:42.869Z,2.33
2022-09-05T16:13:35.216Z,2.25
2022-09-05T16:20:34.583Z,2.15
2022-09-05T16:23:16.961Z,1.88
2022-09-05T16:23:26.367Z,2.38
2022-09-05T16:25:11.104Z,2.25
2022-09-05T16:27:45.778Z,2.13
2022-09-05T16:30:29.324Z,2.42
2022-09-05T16:33:02.618Z,2.28
2022-09-05T16:35:37.028Z,2.35
2022-09-05T16:38:48.482Z,2.00
2022-09-05T16:41:43.196Z,1.90
2022-09-05T16:44:35.680Z,1.90
2022-09-05T16:47:12.195Z,2.05
2022-09-05T16:49:57.381Z,2.10
2022-09-05T16:52:53.695Z,2.00
2022-09-05T16:55:48.602Z,1.80
2022-09-05T16:58:33.553Z,1.90
2022-09-05T17:01:15.820Z,2.00
2022-09-05T17:04:05.309Z,1.50
2022-09-05T17:06:45.800Z,2.10
2022-09-05T17:09:24.369Z,1.80
2022-09-05T17:12:01.982Z,1.83
2022-09-05T17:14:39.205Z,1.90
2022-09-05T17:17:20.101Z,1.80
2022-09-05T17:20:15.268Z,1.60
2022-09-05T17:29:20.110Z,2.00
2022-09-05T17:29:27.752Z,1.67
2022-09-05T17:29:31.064Z,2.08
2022-09-05T17:31:56.465Z,2.28
2022-09-05T17:34:47.719Z,2.28
2022-09-05T17:40:12.735Z,2.17
2022-09-05T17:43:02.111Z,2.03
2022-09-05T17:45:57.050Z,2.28
2022-09-05T17:49:07.054Z,2.13
2022-09-05T17:51:35.705Z,2.15
2022-09-05T17:54:06.351Z,1.85
2022-09-05T17:56:49.976Z,2.08
2022-09-05T17:59:19.419Z,2.25
2022-09-05T18:02:03.347Z,2.10
2022-09-05T18:04:45.738Z,2.40
2022-09-05T18:07:23.132Z,2.10
2022-09-05T18:10:03.565Z,2.28
2022-09-05T18:13:31.450Z,2.03
2022-09-05T18:15:40.259Z,2.35
2022-09-05T18:18:11.876Z,2.65
2022-09-05T18:21:21.842Z,2.65
2022-09-05T18:24:02.347Z,2.90
2022-09-05T18:26:40.050Z,2.17
2022-09-05T18:29:14.307Z,2.65
2022-09-05T18:31:43.813Z,2.75
2022-09-05T18:34:16.424Z,2.72
2022-09-05T18:36:50.562Z,2.55
2022-09-05T18:39:29.390Z,2.65
2022-09-05T18:42:33.614Z,2.85
2022-09-05T18:45:14.604Z,2.70
2022-09-05T18:47:57.326Z,2.90
2022-09-05T18:50:33.773Z,2.88
2022-09-05T18:53:10.531Z,2.70
2022-09-05T18:56:20.090Z,2.90
2022-09-05T18:58:53.390Z,2.90
2022-09-05T19:02:06.807Z,2.95
2022-09-05T19:05:02.548Z,2.85
2022-09-05T19:07:48.347Z,3.28
2022-09-05T19:10:34.494Z,2.78
2022-09-05T19:13:19.603Z,3.40
2022-09-05T19:16:21.217Z,3.47
2022-09-05T19:19:06.801Z,2.78
2022-09-05T19:21:39.182Z,3.70
2022-09-05T19:24:11.465Z,2.88
2022-09-05T19:26:40.630Z,4.30
2022-09-05T19:36:49.126Z,3.20
2022-09-05T19:37:13.589Z,3.13
2022-09-05T19:37:15.604Z,2.95
2022-09-05T19:37:48.984Z,3.03
2022-09-05T19:44:23.717Z,2.75
2022-09-05T19:47:41.034Z,2.95
2022-09-05T19:47:47.914Z,3.17
2022-09-05T19:49:08.314Z,3.58
2022-09-05T19:51:38.037Z,3.15
2022-09-05T19:54:07.310Z,2.90
2022-09-05T19:56:46.290Z,3.22
2022-09-05T19:59:20.322Z,3.00
2022-09-05T20:01:50.501Z,2.80
2022-09-05T20:04:21.661Z,2.70
2022-09-05T20:06:50.402Z,3.08
2022-09-05T20:09:22.549Z,2.72
2022-09-05T20:11:57.920Z,2.63
2022-09-05T20:14:30.477Z,3.13
2022-09-05T20:17:17.424Z,3.10
2022-09-05T20:19:45.871Z,3.25
2022-09-05T20:22:47.900Z,3.30
2022-09-05T20:25:36.762Z,3.28
2022-09-05T20:28:37.828Z,3.20
2022-09-05T20:31:20.585Z,3.60
2022-09-05T20:33:53.196Z,3.35
2022-09-05T20:43:11.040Z,3.38
2022-09-05T20:43:16.384Z,3.20
2022-09-05T20:43:17.116Z,3.95
2022-09-05T20:45:48.409Z,2.83
2022-09-05T20:54:04.547Z,3.28
2022-09-05T20:54:21.962Z,3.10
2022-09-05T20:54:33.008Z,3.40
2022-09-05T20:56:56.901Z,3.17
2022-09-05T20:59:34.808Z,3.10
2022-09-05T21:02:10.049Z,3.20
2022-09-05T21:04:38.832Z,2.97
2022-09-05T21:07:14.155Z,2.65
2022-09-05T21:09:52.725Z,2.90
2022-09-05T21:12:44.781Z,2.90
2022-09-05T21:15:52.345Z,3.10
2022-09-05T21:18:22.479Z,2.67
2022-09-05T21:20:58.046Z,2.92
2022-09-05T21:23:29.016Z,3.42
2022-09-05T21:26:22.542Z,2.90
2022-09-05T21:29:13.898Z,3.03
2022-09-05T21:31:54.484Z,2.78
2022-09-05T21:34:28.170Z,2.75
2022-09-05T21:37:06.693Z,2.60
2022-09-05T21:39:42.914Z,2.60
2022-09-05T21:44:40.835Z,2.60
2022-09-05T21:47:42.997Z,3.22
2022-09-05T21:48:04.718Z,2.92
2022-09-05T21:50:39.681Z,2.88
2022-09-05T21:58:13.058Z,2.70
2022-09-05T21:59:33.444Z,2.70
2022-09-05T22:02:00.413Z,2.58
2022-09-05T22:04:29.743Z,3.10
2022-09-05T22:07:02.747Z,2.97
2022-09-05T22:09:31.305Z,2.40
2022-09-05T22:12:00.060Z,2.70
2022-09-05T22:14:34.933Z,3.05
2022-09-05T22:17:03.750Z,3.08
2022-09-05T22:19:37.477Z,3.00
2022-09-05T22:22:16.468Z,2.90
2022-09-05T22:24:52.169Z,2.60
2022-09-05T22:27:22.153Z,2.65
2022-09-05T22:29:51.807Z,2.65
2022-09-05T22:32:34.049Z,2.88
2022-09-05T22:35:27.996Z,2.80
2022-09-05T22:38:10.582Z,3.05
2022-09-05T22:40:41.781Z,2.58
2022-09-05T22:43:13.103Z,2.60
2022-09-05T22:45:41.625Z,2.78
2022-09-05T22:48:12.982Z,3.08
2022-09-05T22:50:42.755Z,2.58
2022-09-05T22:53:11.191Z,2.83
2022-09-05T22:55:42.148Z,2.78
2022-09-05T22:58:13.361Z,3.10
2022-09-05T23:00:44.148Z,3.35
2022-09-05T23:03:12.473Z,2.78
2022-09-05T23:05:40.790Z,2.70
2022-09-05T23:08:09.513Z,2.70
2022-09-05T23:10:37.888Z,2.90
2022-09-05T23:13:09.442Z,2.70
2022-09-05T23:15:38.831Z,2.92
2022-09-05T23:18:08.657Z,3.08
2022-09-05T23:20:36.962Z,3.13
2022-09-05T23:23:06.698Z,2.50
2022-09-05T23:25:35.888Z,2.67
2022-09-05T23:28:08.662Z,2.45
2022-09-05T23:30:38.997Z,2.80
2022-09-05T23:33:11.077Z,2.67
2022-09-05T23:35:40.088Z,2.72
2022-09-05T23:38:10.591Z,2.60
2022-09-05T23:43:07.542Z,3.00
2022-09-05T23:45:35.874Z,3.05
2022-09-05T23:48:04.336Z,3.30
2022-09-05T23:50:32.673Z,3.03
2022-09-05T23:53:04.315Z,2.97
2022-09-05T23:55:33.991Z,2.80
2022-09-05T23:58:02.691Z,2.83
